createdAt,value
2022-12-13T00:02:06.459Z,-4.21
2022-12-13T00:04:56.292Z,-4.22
2022-12-13T00:07:44.779Z,-4.23
2022-12-13T00:10:33.260Z,-4.23
2022-12-13T00:13:21.731Z,-4.25
2022-12-13T00:16:13.551Z,-4.25
2022-12-13T00:19:02.286Z,-4.23
2022-12-13T00:21:52.080Z,-4.22
2022-12-13T00:24:45.905Z,-4.24
2022-12-13T00:27:34.690Z,-4.22
2022-12-13T00:30:23.212Z,-4.27
2022-12-13T00:33:11.696Z,-4.27
2022-12-13T00:36:00.369Z,-4.33
2022-12-13T00:39:00.191Z,-4.51
2022-12-13T00:41:48.814Z,-4.45
2022-12-13T00:44:37.300Z,-4.35
2022-12-13T00:47:25.784Z,-4.34
2022-12-13T00:50:14.253Z,-4.37
2022-12-13T00:53:04.058Z,-4.35
2022-12-13T00:55:54.077Z,-4.33
2022-12-13T00:58:46.065Z,-4.23
2022-12-13T01:01:37.749Z,-4.33
2022-12-13T01:04:26.267Z,-4.44
2022-12-13T01:07:14.795Z,-4.56
2022-12-13T01:10:03.539Z,-4.50
2022-12-13T01:12:55.093Z,-4.56
2022-12-13T01:15:43.673Z,-4.54
2022-12-13T01:18:32.532Z,-4.70
2022-12-13T01:21:22.111Z,-5.13
2022-12-13T01:24:10.858Z,-4.60
2022-12-13T01:26:59.780Z,-4.73
2022-12-13T01:29:49.639Z,-4.59
2022-12-13T01:32:38.396Z,-4.51
2022-12-13T01:35:26.860Z,-4.67
2022-12-13T01:38:16.187Z,-4.51
2022-12-13T01:41:08.927Z,-4.68
2022-12-13T01:44:07.163Z,-4.68
2022-12-13T01:46:57.016Z,-4.54
2022-12-13T01:49:45.577Z,-4.78
2022-12-13T01:52:34.665Z,-4.67
2022-12-13T01:55:23.880Z,-4.58
2022-12-13T01:58:13.092Z,-4.58
2022-12-13T02:01:02.264Z,-4.62
2022-12-13T02:03:52.099Z,-4.59
2022-12-13T02:06:43.483Z,-4.57
2022-12-13T02:09:32.015Z,-4.61
2022-12-13T02:12:20.419Z,-4.61
2022-12-13T02:15:12.809Z,-4.58
2022-12-13T02:18:14.294Z,-4.58
2022-12-13T02:21:12.280Z,-4.57
2022-12-13T02:24:28.366Z,-4.68
2022-12-13T02:27:42.584Z,-4.63
2022-12-13T02:30:35.897Z,-4.62
2022-12-13T02:33:33.039Z,-4.62
2022-12-13T02:36:26.914Z,-4.60
2022-12-13T02:39:30.332Z,-4.59
2022-12-13T02:42:24.011Z,-4.49
2022-12-13T02:45:20.528Z,-4.36
2022-12-13T02:48:12.093Z,-4.32
2022-12-13T02:51:01.979Z,-4.41
2022-12-13T02:53:50.553Z,-4.57
2022-12-13T02:56:39.007Z,-4.64
2022-12-13T02:59:31.841Z,-4.63
2022-12-13T03:02:31.509Z,-4.59
2022-12-13T03:05:46.771Z,-4.56
2022-12-13T03:08:46.305Z,-4.61
2022-12-13T03:12:00.821Z,-4.60
2022-12-13T03:14:57.647Z,-4.67
2022-12-13T03:17:50.457Z,-4.61
2022-12-13T03:20:40.298Z,-4.67
2022-12-13T03:23:29.239Z,-4.61
2022-12-13T03:26:20.746Z,-4.58
2022-12-13T03:29:09.212Z,-4.64
2022-12-13T03:31:57.674Z,-4.69
2022-12-13T03:34:49.640Z,-4.67
2022-12-13T03:37:42.032Z,-4.72
2022-12-13T03:40:30.913Z,-4.74
2022-12-13T03:43:22.020Z,-4.79
2022-12-13T03:46:11.502Z,-4.86
2022-12-13T03:49:00.023Z,-4.90
2022-12-13T03:51:48.436Z,-5.00
2022-12-13T03:54:38.266Z,-4.96
2022-12-13T03:57:26.734Z,-5.08
2022-12-13T04:00:16.067Z,-5.00
2022-12-13T04:03:04.819Z,-4.90
2022-12-13T04:05:53.343Z,-4.89
2022-12-13T04:11:46.414Z,-4.81
2022-12-13T04:14:34.926Z,-4.82
2022-12-13T04:17:23.377Z,-4.87
2022-12-13T04:20:12.655Z,-4.83
2022-12-13T04:23:01.216Z,-4.81
2022-12-13T04:25:59.976Z,-4.85
2022-12-13T04:28:54.485Z,-4.91
2022-12-13T04:31:43.332Z,-4.93
2022-12-13T04:34:36.771Z,-4.93
2022-12-13T04:37:26.210Z,-4.97
2022-12-13T04:40:14.698Z,-6.10
2022-12-13T04:43:10.424Z,-4.88
2022-12-13T04:46:00.260Z,-4.90
2022-12-13T04:48:48.837Z,-4.83
2022-12-13T04:51:37.301Z,-4.59
2022-12-13T04:54:25.806Z,-4.70
2022-12-13T04:57:14.243Z,-4.78
2022-12-13T05:00:03.018Z,-4.77
2022-12-13T05:02:52.891Z,-4.92
2022-12-13T05:05:41.980Z,-4.97
2022-12-13T05:08:30.551Z,-5.09
2022-12-13T05:11:19.796Z,-5.29
2022-12-13T05:14:11.557Z,-5.19
2022-12-13T05:17:00.324Z,-5.24
2022-12-13T05:19:50.263Z,-5.29
2022-12-13T05:22:38.778Z,-5.33
2022-12-13T05:25:27.293Z,-5.45
2022-12-13T05:28:28.155Z,-5.28
2022-12-13T05:31:22.465Z,-5.33
2022-12-13T05:34:15.744Z,-5.35
2022-12-13T05:37:05.670Z,-5.34
2022-12-13T05:39:54.129Z,-5.31
2022-12-13T05:42:42.582Z,-5.27
2022-12-13T05:45:31.834Z,-5.54
2022-12-13T05:48:24.360Z,-5.13
2022-12-13T05:51:13.606Z,-5.15
2022-12-13T05:54:03.985Z,-5.20
2022-12-13T05:56:52.438Z,-5.23
2022-12-13T05:59:41.022Z,-5.28
2022-12-13T06:02:29.529Z,-5.45
2022-12-13T06:05:18.172Z,-5.43
2022-12-13T06:08:06.668Z,-5.45
2022-12-13T06:11:31.412Z,-5.46
2022-12-13T06:14:21.878Z,-5.47
2022-12-13T06:17:11.390Z,-5.49
2022-12-13T06:19:59.847Z,-5.55
2022-12-13T06:22:48.312Z,-5.49
2022-12-13T06:25:37.572Z,-5.44
2022-12-13T06:28:27.398Z,-5.43
2022-12-13T06:31:15.902Z,-5.46
2022-12-13T06:34:14.673Z,-5.47
2022-12-13T06:37:05.258Z,-5.68
2022-12-13T06:39:53.715Z,-5.51
2022-12-13T06:42:42.197Z,-5.41
2022-12-13T06:45:32.053Z,-5.37
2022-12-13T06:48:20.599Z,-5.70
2022-12-13T06:51:10.385Z,-5.49
2022-12-13T06:53:58.831Z,-5.55
2022-12-13T06:56:49.498Z,-5.42
2022-12-13T06:59:38.003Z,-5.48
2022-12-13T07:02:27.943Z,-5.44
2022-12-13T07:05:16.489Z,-5.32
2022-12-13T07:08:05.466Z,-5.33
2022-12-13T07:10:55.207Z,-5.47
2022-12-13T07:13:43.825Z,-5.20
2022-12-13T07:16:32.347Z,-5.22
2022-12-13T07:19:23.446Z,-5.19
2022-12-13T07:22:13.101Z,-5.17
2022-12-13T07:25:01.626Z,-5.01
2022-12-13T07:28:02.104Z,-5.06
2022-12-13T07:30:51.341Z,-5.11
2022-12-13T07:33:40.370Z,-5.16
2022-12-13T07:36:30.244Z,-5.15
2022-12-13T07:39:18.729Z,-5.20
2022-12-13T07:42:07.360Z,-5.19
2022-12-13T07:44:55.926Z,-5.39
2022-12-13T07:47:44.750Z,-5.42
2022-12-13T07:50:37.290Z,-5.50
2022-12-13T07:53:27.699Z,-5.44
2022-12-13T07:56:21.845Z,-5.31
2022-12-13T07:59:11.159Z,-5.34
2022-12-13T08:02:01.789Z,-5.55
2022-12-13T08:04:54.443Z,-5.22
2022-12-13T08:07:43.536Z,-5.25
2022-12-13T08:10:33.854Z,-5.17
2022-12-13T08:13:22.646Z,-5.06
2022-12-13T08:16:26.083Z,-4.88
2022-12-13T08:19:17.445Z,-4.76
2022-12-13T08:22:06.619Z,-4.61
2022-12-13T08:25:03.446Z,-4.62
2022-12-13T08:27:53.483Z,-4.56
2022-12-13T08:30:50.385Z,-4.42
2022-12-13T08:33:40.292Z,-4.47
2022-12-13T08:36:28.838Z,-4.47
2022-12-13T08:39:17.351Z,-4.40
2022-12-13T08:42:15.242Z,-5.83
2022-12-13T08:45:09.686Z,-3.86
2022-12-13T08:47:59.268Z,-3.79
2022-12-13T08:50:47.783Z,-4.70
2022-12-13T08:53:41.166Z,-3.78
2022-12-13T08:56:30.078Z,-3.80
2022-12-13T08:59:19.228Z,-4.09
2022-12-13T09:02:11.192Z,-3.97
2022-12-13T09:04:59.698Z,-3.66
2022-12-13T09:07:48.265Z,-3.39
2022-12-13T09:10:38.321Z,-3.49
2022-12-13T09:13:31.560Z,-3.51
2022-12-13T09:16:24.477Z,-3.36
2022-12-13T09:19:26.147Z,-3.48
2022-12-13T09:22:16.253Z,-3.34
2022-12-13T09:25:24.230Z,-3.26
2022-12-13T09:28:12.969Z,-3.45
2022-12-13T09:31:02.255Z,-3.56
2022-12-13T09:33:50.735Z,-3.15
2022-12-13T09:36:40.882Z,-3.00
2022-12-13T09:39:29.386Z,-3.22
2022-12-13T09:42:20.897Z,-2.94
2022-12-13T09:45:22.349Z,-3.15
2022-12-13T09:48:13.562Z,-2.91
2022-12-13T09:51:18.178Z,-2.97
2022-12-13T09:54:20.737Z,-3.08
2022-12-13T09:57:30.896Z,-2.83
2022-12-13T10:00:24.046Z,-2.80
2022-12-13T10:03:15.803Z,-2.84
2022-12-13T10:06:15.015Z,-2.67
2022-12-13T10:09:14.198Z,-2.76
2022-12-13T10:12:04.567Z,-2.68
2022-12-13T10:14:56.700Z,-2.72
2022-12-13T10:17:51.563Z,-2.75
2022-12-13T10:20:44.385Z,-2.78
2022-12-13T10:23:47.029Z,-2.33
2022-12-13T10:26:41.592Z,-2.60
2022-12-13T10:29:31.551Z,-2.31
2022-12-13T10:32:20.387Z,-2.36
2022-12-13T10:35:23.400Z,-2.37
2022-12-13T10:38:31.956Z,-2.33
2022-12-13T10:41:30.046Z,-2.30
2022-12-13T10:44:25.049Z,-2.17
2022-12-13T10:47:19.833Z,-2.14
2022-12-13T10:50:24.292Z,-2.28
2022-12-13T10:53:19.634Z,-2.25
2022-12-13T10:56:11.435Z,-2.28
2022-12-13T10:59:17.045Z,-2.43
2022-12-13T11:02:35.760Z,-2.13
2022-12-13T11:05:26.755Z,-2.03
2022-12-13T11:08:17.065Z,-2.01
2022-12-13T11:11:07.636Z,-2.84
2022-12-13T11:14:01.333Z,-2.14
2022-12-13T11:16:51.880Z,-2.16
2022-12-13T11:19:46.476Z,-1.94
2022-12-13T11:22:37.452Z,-2.11
2022-12-13T11:25:28.572Z,-1.99
2022-12-13T11:28:28.582Z,-1.97
2022-12-13T11:31:21.603Z,-1.95
2022-12-13T11:34:16.741Z,-1.82
2022-12-13T11:37:14.297Z,-1.74
2022-12-13T11:40:06.602Z,-1.83
2022-12-13T11:42:59.048Z,-1.59
2022-12-13T11:45:52.534Z,-1.65
2022-12-13T11:48:44.686Z,-1.58
2022-12-13T11:51:40.749Z,-1.57
2022-12-13T11:54:36.359Z,-1.36
2022-12-13T11:57:33.350Z,-1.51
2022-12-13T12:00:35.181Z,-1.43
2022-12-13T12:03:37.734Z,-1.40
2022-12-13T12:06:28.635Z,-1.64
2022-12-13T12:09:19.673Z,-1.37
2022-12-13T12:12:13.983Z,-1.94
2022-12-13T12:15:16.212Z,-1.49
2022-12-13T12:18:05.140Z,-1.58
2022-12-13T12:21:15.254Z,-1.45
2022-12-13T12:24:11.894Z,-1.46
2022-12-13T12:27:11.891Z,-1.33
2022-12-13T12:30:13.697Z,-1.39
2022-12-13T12:33:19.990Z,-1.51
2022-12-13T12:36:21.869Z,-1.29
2022-12-13T12:39:41.192Z,-1.29
2022-12-13T12:43:11.807Z,-1.35
2022-12-13T12:46:00.400Z,-1.20
2022-12-13T12:49:08.766Z,-1.18
2022-12-13T12:52:03.509Z,-1.33
2022-12-13T12:55:02.962Z,-1.35
2022-12-13T12:58:01.894Z,-1.12
2022-12-13T13:01:05.707Z,-1.10
2022-12-13T13:04:01.804Z,-1.04
2022-12-13T13:06:52.463Z,-1.00
2022-12-13T13:09:41.509Z,-0.92
2022-12-13T13:12:30.985Z,-1.00
2022-12-13T13:15:51.783Z,-1.01
2022-12-13T13:18:45.910Z,-1.00
2022-12-13T13:21:39.408Z,-0.85
2022-12-13T13:24:29.195Z,-0.82
2022-12-13T13:27:28.818Z,-0.74
2022-12-13T13:30:19.389Z,-0.79
2022-12-13T13:33:54.029Z,-0.72
2022-12-13T13:36:52.314Z,-0.72
2022-12-13T13:40:01.489Z,-0.57
2022-12-13T13:43:04.892Z,-0.46
2022-12-13T13:45:57.367Z,-0.49
2022-12-13T13:48:56.231Z,-0.68
2022-12-13T13:52:24.865Z,-0.58
2022-12-13T13:55:34.301Z,-0.76
2022-12-13T13:58:55.895Z,-0.76
2022-12-13T14:02:36.373Z,-0.77
2022-12-13T14:06:03.712Z,-0.83
2022-12-13T14:09:09.416Z,-0.96
2022-12-13T14:12:35.327Z,-1.12
2022-12-13T14:16:11.987Z,-1.38
2022-12-13T14:19:29.976Z,-1.32
2022-12-13T14:22:29.363Z,-1.18
2022-12-13T14:25:47.825Z,-1.18
2022-12-13T14:28:48.284Z,-1.26
2022-12-13T14:31:40.737Z,-1.20
2022-12-13T14:34:31.030Z,-1.16
2022-12-13T14:37:28.306Z,-1.29
2022-12-13T14:40:27.182Z,-1.37
2022-12-13T14:43:24.686Z,-1.29
2022-12-13T14:46:16.050Z,-1.30
2022-12-13T14:49:07.734Z,-1.33
2022-12-13T14:52:01.228Z,-1.37
2022-12-13T14:54:57.878Z,-1.52
2022-12-13T14:57:53.247Z,-1.33
2022-12-13T15:00:42.724Z,-1.53
2022-12-13T15:03:31.373Z,-1.42
2022-12-13T15:06:20.558Z,-1.39
2022-12-13T15:09:12.078Z,-1.43
2022-12-13T15:12:24.891Z,-1.42
2022-12-13T15:15:31.560Z,-1.45
2022-12-13T15:18:21.707Z,-1.53
2022-12-13T15:21:22.958Z,-1.50
2022-12-13T15:24:13.475Z,-1.61
2022-12-13T15:27:03.665Z,-1.68
2022-12-13T15:29:54.245Z,-1.68
2022-12-13T15:33:03.484Z,-1.59
2022-12-13T15:36:05.963Z,-1.57
2022-12-13T15:39:01.745Z,-1.61
2022-12-13T15:41:50.791Z,-1.56
2022-12-13T15:44:45.835Z,-1.62
2022-12-13T15:47:36.630Z,-1.89
2022-12-13T15:50:34.189Z,-1.60
2022-12-13T15:53:27.380Z,-1.53
2022-12-13T15:56:31.188Z,-1.66
2022-12-13T15:59:26.816Z,-1.60
2022-12-13T16:02:20.494Z,-1.57
2022-12-13T16:05:10.964Z,-1.62
2022-12-13T16:08:13.968Z,-1.60
2022-12-13T16:11:03.276Z,-1.60
2022-12-13T16:13:52.465Z,-1.69
2022-12-13T16:16:47.304Z,-1.63
2022-12-13T16:19:37.165Z,-1.88
2022-12-13T16:22:25.783Z,-1.69
2022-12-13T16:25:16.023Z,-1.64
2022-12-13T16:28:04.703Z,-1.75
2022-12-13T16:31:03.288Z,-1.62
2022-12-13T16:33:52.509Z,-2.04
2022-12-13T16:36:42.387Z,-1.67
2022-12-13T16:39:30.916Z,-1.77
2022-12-13T16:42:19.696Z,-1.66
2022-12-13T16:45:42.920Z,-1.79
2022-12-13T16:48:22.261Z,-1.65
2022-12-13T16:51:10.973Z,-1.52
2022-12-13T16:54:00.931Z,-1.58
2022-12-13T16:56:50.705Z,-1.67
2022-12-13T16:59:39.241Z,-1.82
2022-12-13T17:02:27.777Z,-1.67
2022-12-13T17:05:17.255Z,-1.57
2022-12-13T17:08:05.941Z,-1.71
2022-12-13T17:10:58.017Z,-1.84
2022-12-13T17:13:48.110Z,-1.80
2022-12-13T17:16:36.601Z,-1.74
2022-12-13T17:19:25.125Z,-2.00
2022-12-13T17:22:13.589Z,-1.83
2022-12-13T17:25:02.144Z,-2.01
2022-12-13T17:27:52.106Z,-1.81
2022-12-13T17:30:41.158Z,-1.76
2022-12-13T17:33:29.726Z,-1.79
2022-12-13T17:36:18.586Z,-1.92
2022-12-13T17:39:07.205Z,-1.77
2022-12-13T17:41:55.960Z,-1.74
2022-12-13T17:44:46.280Z,-1.87
2022-12-13T17:47:34.848Z,-1.81
2022-12-13T17:50:23.296Z,-1.84
2022-12-13T17:53:11.923Z,-1.97
2022-12-13T17:56:02.348Z,-2.54
2022-12-13T17:58:50.862Z,-2.00
2022-12-13T18:01:40.921Z,-1.86
2022-12-13T18:04:29.480Z,-1.87
2022-12-13T18:07:18.012Z,-1.90
2022-12-13T18:10:07.639Z,-2.16
2022-12-13T18:12:56.144Z,-2.14
2022-12-13T18:15:44.688Z,-2.22
2022-12-13T18:18:34.820Z,-2.25
2022-12-13T18:21:23.917Z,-2.06
2022-12-13T18:24:12.774Z,-2.15
2022-12-13T18:27:01.300Z,-2.07
2022-12-13T18:29:55.326Z,-2.05
2022-12-13T18:32:44.194Z,-2.13
2022-12-13T18:35:34.313Z,-2.15
2022-12-13T18:38:24.199Z,-2.14
2022-12-13T18:41:14.951Z,-2.04
2022-12-13T18:44:05.451Z,-2.13
2022-12-13T18:46:54.113Z,-2.07
2022-12-13T18:49:43.087Z,-2.17
2022-12-13T18:52:44.824Z,-2.11
2022-12-13T18:55:33.348Z,-2.03
2022-12-13T18:58:21.882Z,-2.00
2022-12-13T19:01:12.332Z,-2.10
2022-12-13T19:04:00.825Z,-2.05
2022-12-13T19:06:49.301Z,-1.90
2022-12-13T19:09:39.123Z,-1.98
2022-12-13T19:12:27.647Z,-2.20
2022-12-13T19:15:17.082Z,-1.89
2022-12-13T19:18:06.827Z,-1.90
2022-12-13T19:20:56.008Z,-1.80
2022-12-13T19:23:49.495Z,-1.85
2022-12-13T19:26:43.295Z,-1.90
2022-12-13T19:29:31.838Z,-1.82
2022-12-13T19:32:20.661Z,-1.79
2022-12-13T19:35:10.141Z,-1.83
2022-12-13T19:37:58.844Z,-1.75
2022-12-13T19:40:47.404Z,-1.74
2022-12-13T19:43:37.505Z,-1.62
2022-12-13T19:46:27.183Z,-1.90
2022-12-13T19:49:15.969Z,-1.60
2022-12-13T19:52:04.810Z,-1.70
2022-12-13T19:54:53.637Z,-1.69
2022-12-13T19:57:42.110Z,-1.60
2022-12-13T20:00:31.952Z,-1.67
2022-12-13T20:03:20.660Z,-1.58
2022-12-13T20:06:13.283Z,-1.69
2022-12-13T20:09:01.803Z,-1.69
2022-12-13T20:11:50.470Z,-1.75
2022-12-13T20:14:38.985Z,-1.92
2022-12-13T20:17:29.147Z,-1.62
2022-12-13T20:20:17.877Z,-1.78
2022-12-13T20:23:06.905Z,-1.64
2022-12-13T20:26:00.807Z,-1.65
2022-12-13T20:28:49.975Z,-1.68
2022-12-13T20:31:40.011Z,-1.61
2022-12-13T20:34:29.955Z,-1.49
2022-12-13T20:37:18.492Z,-1.67
2022-12-13T20:40:08.320Z,-1.69
2022-12-13T20:42:57.080Z,-1.86
2022-12-13T20:45:46.649Z,-1.63
2022-12-13T20:48:36.820Z,-1.63
2022-12-13T20:51:28.269Z,-1.65
2022-12-13T20:54:16.784Z,-1.59
2022-12-13T20:57:06.049Z,-1.60
2022-12-13T20:59:54.549Z,-1.49
2022-12-13T21:02:44.500Z,-1.52
2022-12-13T21:05:33.008Z,-1.54
2022-12-13T21:08:40.626Z,-1.70
2022-12-13T21:11:31.192Z,-1.57
2022-12-13T21:14:23.172Z,-1.55
2022-12-13T21:17:12.074Z,-1.59
2022-12-13T21:20:00.628Z,-1.55
2022-12-13T21:22:49.196Z,-1.50
2022-12-13T21:25:39.167Z,-1.55
2022-12-13T21:28:27.605Z,-1.57
2022-12-13T21:31:16.123Z,-1.59
2022-12-13T21:34:06.367Z,-1.60
2022-12-13T21:36:54.876Z,-1.68
2022-12-13T21:39:43.349Z,-1.63
2022-12-13T21:42:33.416Z,-1.73
2022-12-13T21:45:21.905Z,-1.58
2022-12-13T21:48:10.662Z,-1.48
2022-12-13T21:50:59.157Z,-1.60
2022-12-13T21:53:48.027Z,-1.66
2022-12-13T21:56:54.143Z,-1.65
2022-12-13T21:59:44.059Z,-1.64
2022-12-13T22:02:32.634Z,-1.60
2022-12-13T22:05:21.983Z,-1.62
2022-12-13T22:08:10.458Z,-1.58
2022-12-13T22:11:20.918Z,-1.62
2022-12-13T22:14:09.985Z,-1.56
2022-12-13T22:16:59.783Z,-1.54
2022-12-13T22:19:49.070Z,-1.57
2022-12-13T22:22:39.622Z,-1.58
2022-12-13T22:25:28.125Z,-1.52
2022-12-13T22:28:17.075Z,-1.77
2022-12-13T22:31:05.825Z,-1.61
2022-12-13T22:33:56.925Z,-1.56
2022-12-13T22:36:45.547Z,-1.59
2022-12-13T22:39:34.146Z,-1.63
2022-12-13T22:42:22.838Z,-1.46
2022-12-13T22:45:12.010Z,-1.43
2022-12-13T22:48:00.460Z,-1.54
2022-12-13T22:50:50.302Z,-1.49
2022-12-13T22:53:38.997Z,-1.51
2022-12-13T22:56:28.415Z,-1.37
2022-12-13T22:59:17.538Z,-1.37
2022-12-13T23:02:06.151Z,-1.24
2022-12-13T23:04:54.752Z,-1.20
2022-12-13T23:07:44.535Z,-1.21
2022-12-13T23:10:54.917Z,-1.30
2022-12-13T23:13:43.461Z,-1.31
2022-12-13T23:16:37.685Z,-1.16
2022-12-13T23:19:51.577Z,-1.45
2022-12-13T23:22:35.849Z,-1.28
2022-12-13T23:25:25.749Z,-1.31
2022-12-13T23:28:14.398Z,-1.38
2022-12-13T23:31:02.999Z,-1.71
2022-12-13T23:33:51.520Z,-1.13
2022-12-13T23:36:40.017Z,-1.13
2022-12-13T23:39:28.638Z,-1.09
2022-12-13T23:42:18.712Z,-1.05
2022-12-13T23:45:08.431Z,-0.98
2022-12-13T23:47:56.990Z,-1.11
2022-12-13T23:50:45.654Z,-0.92
2022-12-13T23:53:35.610Z,-0.99
2022-12-13T23:56:24.692Z,-1.18
2022-12-13T23:59:14.781Z,-1.00
